Time;durP1;ratioP1;P1;durP2;ratioP2;P2;SDS_P1;SDS_P2;PMS_P1;PMS_P2;Temp;Humidity;BMP_temperature;BMP_pressure;BME280_temperature;BME280_humidity;BME280_pressure;Samples;Min_cycle;Max_cycle;Signal;HPM_P1;HPM_P2
2022/07/21 00:01:52;;;;;;;9.20;4.22;;;;;;;25.32;39.31;100940.46;1647459;84;25841;-67
2022/07/21 00:04:21;;;;;;;10.38;4.20;;;;;;;25.28;39.40;100939.91;1645608;85;98574;-67
2022/07/21 00:06:47;;;;;;;7.78;4.08;;;;;;;25.25;39.46;100938.84;1642897;85;25853;-67
2022/07/21 00:09:14;;;;;;;7.33;4.10;;;;;;;25.20;39.53;100929.70;1644604;85;99199;-67
2022/07/21 00:11:40;;;;;;;4.58;4.17;;;;;;;25.18;39.59;100934.48;1646860;85;27500;-67
2022/07/21 00:14:08;;;;;;;8.08;4.47;;;;;;;25.14;39.65;100933.57;1649435;85;99403;-67
2022/07/21 00:16:35;;;;;;;3.77;3.30;;;;;;;25.10;39.72;100937.63;1645707;85;25867;-67
2022/07/21 00:19:01;;;;;;;11.00;3.90;;;;;;;25.06;39.80;100930.73;1649060;85;25811;-67
2022/07/21 00:21:28;;;;;;;8.48;4.50;;;;;;;25.02;39.86;100933.42;1643597;85;99320;-67
2022/07/21 00:23:54;;;;;;;7.95;4.05;;;;;;;24.99;39.95;100933.73;1646555;85;28278;-67
2022/07/21 00:26:20;;;;;;;5.78;3.62;;;;;;;24.96;39.99;100938.97;1648691;85;98899;-67
2022/07/21 00:28:47;;;;;;;5.15;3.92;;;;;;;24.90;40.07;100935.47;1646639;85;25743;-67
2022/07/21 00:31:13;;;;;;;9.85;4.22;;;;;;;24.88;40.14;100938.36;1653334;85;26354;-67
2022/07/21 00:33:38;;;;;;;7.78;4.10;;;;;;;24.84;40.18;100930.08;1647369;85;98918;-67
2022/07/21 00:36:05;;;;;;;7.92;4.35;;;;;;;24.82;40.23;100937.59;1647738;84;29758;-66
2022/07/21 00:38:31;;;;;;;8.63;4.00;;;;;;;24.78;40.31;100934.80;1648102;84;98956;-66
2022/07/21 00:40:57;;;;;;;5.80;4.20;;;;;;;24.75;40.42;100933.73;1658000;84;25780;-66
2022/07/21 00:43:23;;;;;;;6.72;4.10;;;;;;;24.72;40.47;100934.03;1661312;84;26571;-66
2022/07/21 00:45:56;;;;;;;6.40;4.20;;;;;;;24.67;40.52;100930.88;1664325;84;98787;-66
2022/07/21 00:48:22;;;;;;;6.20;3.92;;;;;;;24.62;40.63;100928.23;1655835;84;27344;-66
2022/07/21 00:50:49;;;;;;;5.50;3.90;;;;;;;24.56;40.70;100921.47;1657978;84;98634;-66
2022/07/21 00:53:15;;;;;;;8.50;4.75;;;;;;;24.53;40.82;100921.27;1659769;83;25805;-67
2022/07/21 00:55:43;;;;;;;8.40;3.77;;;;;;;24.50;40.87;100917.96;1632732;86;27721;-66
2022/07/21 00:58:09;;;;;;;12.05;3.87;;;;;;;24.46;40.92;100918.77;1624741;86;99067;-66
2022/07/21 01:00:36;;;;;;;8.98;4.17;;;;;;;24.43;41.01;100915.46;1657249;84;27444;-65
2022/07/21 01:03:04;;;;;;;4.45;4.00;;;;;;;24.41;41.09;100915.61;1656906;85;98785;-66
2022/07/21 01:05:30;;;;;;;9.68;3.90;;;;;;;24.40;41.18;100915.76;1633198;86;26629;-65
2022/07/21 01:08:02;;;;;;;7.08;4.05;;;;;;;24.36;41.21;100913.83;1652354;85;25826;-66
2022/07/21 01:10:25;;;;;;;10.28;3.72;;;;;;;24.35;41.29;100916.71;1630681;84;98551;-66
2022/07/21 01:12:51;;;;;;;7.35;4.08;;;;;;;24.32;41.34;100915.13;1658131;83;27515;-66
2022/07/21 01:15:19;;;;;;;6.70;5.55;;;;;;;24.30;41.43;100913.55;1653838;85;98868;-67
2022/07/21 01:17:46;;;;;;;5.92;4.85;;;;;;;24.26;41.46;100916.59;1654494;85;25803;-67
2022/07/21 01:20:17;;;;;;;8.05;4.22;;;;;;;24.23;41.49;100907.27;1649117;84;98945;-67
2022/07/21 01:22:46;;;;;;;10.98;4.20;;;;;;;24.18;41.57;100906.84;1643447;85;26134;-67
2022/07/21 01:25:13;;;;;;;11.48;5.33;;;;;;;24.16;41.62;100914.85;1652875;84;27443;-67
2022/07/21 01:27:40;;;;;;;18.85;9.28;;;;;;;24.13;41.67;100909.16;1649611;85;98857;-67
2022/07/21 01:30:08;;;;;;;10.40;5.90;;;;;;;24.10;41.75;100908.09;1654321;84;25774;-67
2022/07/21 01:32:36;;;;;;;9.48;5.70;;;;;;;24.09;41.82;100911.84;1652932;85;98994;-67
2022/07/21 01:35:05;;;;;;;14.00;4.37;;;;;;;24.08;41.88;100911.98;1658507;84;25857;-67
2022/07/21 01:37:33;;;;;;;7.33;4.35;;;;;;;24.06;41.79;100910.77;1657025;85;27521;-67
2022/07/21 01:42:44;;;;;;;11.93;4.58;;;;;;;23.94;42.11;100908.69;1627882;85;26525;-67
2022/07/21 01:45:10;;;;;;;10.95;3.95;;;;;;;23.94;42.11;100908.69;1653128;84;98833;-67
2022/07/21 01:47:36;;;;;;;8.25;4.33;;;;;;;23.90;42.16;100918.20;1658107;84;25737;-67
2022/07/21 01:50:03;;;;;;;11.95;4.15;;;;;;;23.85;42.23;100913.67;1653896;85;28157;-67
2022/07/21 01:52:29;;;;;;;5.37;4.03;;;;;;;23.84;42.30;100907.84;1648163;85;98668;-67
2022/07/21 01:54:55;;;;;;;8.50;4.15;;;;;;;23.81;42.36;100913.60;1630865;86;25792;-67
2022/07/21 01:57:23;;;;;;;16.62;4.83;;;;;;;23.81;42.45;100915.47;1620237;86;99017;-67
2022/07/21 01:59:50;;;;;;;9.33;4.42;;;;;;;23.78;42.47;100908.42;1619799;87;25788;-67
2022/07/21 02:02:20;;;;;;;6.87;4.00;;;;;;;23.77;42.54;100903.09;1629708;86;98868;-67
2022/07/21 02:04:43;;;;;;;8.05;4.28;;;;;;;23.74;42.58;100903.38;1645933;85;25860;-67
2022/07/21 02:07:09;;;;;;;7.28;3.60;;;;;;;23.72;42.68;100900.78;1623526;85;25835;-67
2022/07/21 02:09:35;;;;;;;6.33;4.08;;;;;;;23.72;42.71;100904.03;1627128;85;98775;-67
2022/07/21 02:12:01;;;;;;;7.35;3.95;;;;;;;23.70;42.77;100898.70;1632578;86;26321;-67
2022/07/21 02:14:28;;;;;;;6.08;4.20;;;;;;;23.69;42.80;100897.47;1632414;86;98926;-67
2022/07/21 02:16:54;;;;;;;5.90;3.90;;;;;;;23.69;42.85;100900.21;1649141;85;27086;-67
2022/07/21 02:19:20;;;;;;;6.92;4.08;;;;;;;23.67;42.89;100915.41;1627817;87;25825;-67
2022/07/21 02:21:46;;;;;;;6.00;4.05;;;;;;;23.64;42.97;100911.09;1652380;84;98753;-67
2022/07/21 02:24:12;;;;;;;9.85;3.75;;;;;;;23.64;43.04;100915.70;1647569;85;25868;-67
2022/07/21 02:26:37;;;;;;;9.08;3.70;;;;;;;23.61;43.10;100907.27;1645939;83;99082;-67
2022/07/21 02:29:04;;;;;;;4.25;3.45;;;;;;;23.59;43.18;100901.08;1652085;84;27069;-67
2022/07/21 02:31:32;;;;;;;4.95;4.25;;;;;;;23.58;43.22;100906.19;1650161;84;26430;-68
2022/07/21 02:33:58;;;;;;;7.95;3.55;;;;;;;23.57;43.31;100904.96;1620651;85;98841;-67
2022/07/21 02:36:24;;;;;;;7.78;4.35;;;;;;;23.56;43.37;100909.57;1633847;86;25845;-67
2022/07/21 02:38:50;;;;;;;7.17;4.25;;;;;;;23.56;43.40;100907.34;1650045;84;99017;-67
2022/07/21 02:41:17;;;;;;;6.60;4.03;;;;;;;23.54;43.45;100898.41;1630596;85;25790;-67
2022/07/21 02:43:42;;;;;;;8.63;4.85;;;;;;;23.52;43.49;100894.92;1650003;84;25798;-67
2022/07/21 02:46:08;;;;;;;11.75;4.42;;;;;;;23.51;43.55;100893.19;1633248;86;98882;-67
2022/07/21 02:48:35;;;;;;;7.87;4.22;;;;;;;23.46;43.58;100892.76;1650238;84;26430;-67
2022/07/21 02:51:01;;;;;;;5.20;4.10;;;;;;;23.42;43.67;100886.70;1645715;83;98626;-67
2022/07/21 02:53:27;;;;;;;7.85;4.17;;;;;;;23.39;43.73;100889.77;1645677;85;25853;-67
2022/07/21 02:55:54;;;;;;;10.28;4.42;;;;;;;23.38;43.79;100898.98;1647917;85;25811;-67
2022/07/21 02:58:27;;;;;;;6.65;4.25;;;;;;;23.33;43.83;100898.54;1650757;85;99049;-67
2022/07/21 03:00:59;;;;;;;5.45;4.22;;;;;;;23.26;43.85;100894.64;1650531;85;26423;-68
2022/07/21 03:03:31;;;;;;;10.72;4.37;;;;;;;23.21;43.96;100891.47;1636371;86;98881;-66
2022/07/21 03:05:58;;;;;;;7.75;4.35;;;;;;;23.22;44.09;100897.30;1645246;85;27043;-67
2022/07/21 03:08:26;;;;;;;12.78;5.15;;;;;;;23.19;44.10;100894.85;1657857;84;98991;-67
2022/07/21 03:10:52;;;;;;;7.75;4.00;;;;;;;23.17;44.20;100892.26;1644571;85;25847;-66
2022/07/21 03:13:19;;;;;;;5.60;3.95;;;;;;;23.18;44.24;100880.81;1646855;85;25787;-66
2022/07/21 03:15:45;;;;;;;9.65;4.15;;;;;;;23.15;44.29;100882.47;1644516;85;98829;-66
2022/07/21 03:18:11;;;;;;;8.93;3.87;;;;;;;23.15;44.33;100875.13;1658216;84;26536;-66
2022/07/21 03:20:40;;;;;;;10.10;4.15;;;;;;;23.09;44.38;100872.95;1657976;83;98921;-66
2022/07/21 03:23:06;;;;;;;14.35;4.05;;;;;;;23.06;44.47;100871.01;1645995;85;26367;-66
2022/07/21 03:25:33;;;;;;;12.58;4.83;;;;;;;23.04;44.71;100868.92;1643593;85;25806;-66
2022/07/21 03:28:03;;;;;;;11.83;4.47;;;;;;;22.89;44.62;100843.35;1633853;85;99038;-67
2022/07/21 03:30:31;;;;;;;25.95;5.55;;;;;;;23.01;44.65;100869.20;1645405;85;26695;-66
2022/07/21 03:32:58;;;;;;;10.82;5.08;;;;;;;22.97;44.76;100864.02;1642488;84;99211;-66
2022/07/21 03:35:26;;;;;;;8.60;4.45;;;;;;;22.97;44.82;100872.22;1639726;85;26564;-68
2022/07/21 03:37:55;;;;;;;9.33;4.67;;;;;;;22.94;44.88;100868.91;1642170;85;25905;-67
2022/07/21 03:40:24;;;;;;;10.93;3.95;;;;;;;22.94;44.97;100868.40;1640765;84;98613;-67
2022/07/21 03:42:53;;;;;;;6.83;4.33;;;;;;;22.95;45.37;100872.86;1639329;84;26162;-67
2022/07/21 03:45:20;;;;;;;9.15;5.50;;;;;;;22.98;45.08;100871.72;1642430;84;98632;-67
2022/07/21 03:47:46;;;;;;;5.70;4.30;;;;;;;22.99;45.08;100870.20;1648260;85;26243;-67
2022/07/21 03:50:12;;;;;;;10.78;4.95;;;;;;;23.02;45.17;100873.66;1640137;84;98935;-67
2022/07/21 03:52:41;;;;;;;8.93;4.33;;;;;;;23.02;45.16;100872.30;1640664;84;27469;-67
2022/07/21 03:55:08;;;;;;;8.53;3.92;;;;;;;23.02;45.26;100875.03;1645205;85;25959;-67
2022/07/21 03:57:39;;;;;;;5.62;4.03;;;;;;;23.02;45.27;100879.13;1642783;85;98822;-67
2022/07/21 04:00:11;;;;;;;7.28;4.33;;;;;;;23.01;45.31;100882.88;1642752;85;26443;-66
2022/07/21 04:02:37;;;;;;;8.53;4.40;;;;;;;22.98;45.39;100873.95;1645015;84;98795;-67
2022/07/21 04:05:04;;;;;;;10.58;4.85;;;;;;;22.97;45.42;100884.52;1643247;84;27506;-66
2022/07/21 04:07:30;;;;;;;8.63;4.15;;;;;;;22.96;45.48;100880.05;1650093;85;26527;-67
2022/07/21 04:09:56;;;;;;;9.45;4.30;;;;;;;22.89;45.56;100867.09;1642290;85;98607;-66
2022/07/21 04:12:28;;;;;;;6.15;4.00;;;;;;;22.99;45.65;100882.51;1644093;85;25850;-67
2022/07/21 04:14:55;;;;;;;6.40;4.08;;;;;;;23.02;45.81;100892.80;1646005;85;98728;-67
2022/07/21 04:17:24;;;;;;;6.28;3.80;;;;;;;23.04;45.25;100888.92;1637384;85;28108;-66
2022/07/21 04:19:50;;;;;;;12.13;4.15;;;;;;;23.06;45.76;100896.98;1645747;84;25873;-66
2022/07/21 04:22:16;;;;;;;7.75;4.10;;;;;;;23.06;45.76;100896.98;1653372;83;98904;-67
2022/07/21 04:24:43;;;;;;;5.50;4.22;;;;;;;23.09;45.86;100895.34;1655236;84;26384;-67
2022/07/21 04:27:09;;;;;;;4.42;3.75;;;;;;;23.11;45.94;100897.42;1653719;84;98901;-67
2022/07/21 04:29:35;;;;;;;7.20;3.80;;;;;;;23.15;45.95;100902.47;1657576;84;27483;-66
2022/07/21 04:32:01;;;;;;;10.35;3.80;;;;;;;23.19;46.02;100901.69;1656900;84;25873;-66
2022/07/21 04:34:28;;;;;;;11.35;4.28;;;;;;;23.24;46.00;100900.77;1655544;84;98631;-67
2022/07/21 04:36:54;;;;;;;7.45;4.40;;;;;;;23.23;45.98;100901.77;1652989;85;26465;-67
2022/07/21 04:39:20;;;;;;;6.10;4.17;;;;;;;23.25;46.02;100899.75;1654969;84;98597;-66
2022/07/21 04:41:47;;;;;;;10.68;4.42;;;;;;;23.27;46.03;100897.23;1654371;85;27880;-66
2022/07/21 04:44:13;;;;;;;7.78;4.25;;;;;;;23.30;46.05;100900.19;1645951;85;98950;-66
2022/07/21 04:46:39;;;;;;;9.28;4.03;;;;;;;23.32;46.06;100902.28;1648602;85;26244;-65
2022/07/21 04:49:04;;;;;;;6.28;4.08;;;;;;;23.33;46.08;100912.22;1651595;84;25745;-66
2022/07/21 04:51:30;;;;;;;11.10;3.90;;;;;;;23.33;46.12;100913.59;1646700;84;98754;-65
2022/07/21 04:53:56;;;;;;;8.35;4.85;;;;;;;23.37;46.17;100915.03;1649185;84;27371;-66
2022/07/21 04:56:22;;;;;;;9.78;4.45;;;;;;;23.43;46.17;100917.16;1647415;85;99544;-66
2022/07/21 04:58:48;;;;;;;7.95;4.80;;;;;;;23.47;46.16;100917.23;1617718;87;25715;-66
2022/07/21 05:01:14;;;;;;;8.98;4.17;;;;;;;23.50;46.19;100923.80;1593327;88;25818;-66
2022/07/21 05:03:40;;;;;;;7.90;4.17;;;;;;;23.55;46.19;100917.92;1594501;88;98907;-66
2022/07/21 05:06:06;;;;;;;11.10;4.30;;;;;;;23.57;46.20;100922.25;1623312;85;28170;-66
2022/07/21 05:08:32;;;;;;;13.15;4.67;;;;;;;23.61;46.19;100911.87;1619727;85;99136;-65
2022/07/21 05:10:59;;;;;;;10.58;4.67;;;;;;;23.64;46.09;100910.22;1624629;85;47007;-66
2022/07/21 05:13:28;;;;;;;10.43;3.45;;;;;;;23.67;46.21;100913.17;1620313;85;26465;-65
2022/07/21 05:15:57;;;;;;;11.73;4.28;;;;;;;23.69;46.23;100909.28;1617663;86;98948;-66
2022/07/21 05:18:23;;;;;;;9.33;3.85;;;;;;;23.72;46.23;100906.77;1618581;87;27474;-66
2022/07/21 05:20:49;;;;;;;11.30;4.55;;;;;;;23.74;46.21;100912.95;1589536;87;98954;-66
2022/07/21 05:23:15;;;;;;;12.40;5.20;;;;;;;23.78;46.23;100907.55;1650353;85;25845;-66
2022/07/21 05:25:41;;;;;;;9.28;4.42;;;;;;;23.81;46.24;100911.37;1619769;85;26238;-66
2022/07/21 05:28:07;;;;;;;12.53;4.17;;;;;;;23.85;46.21;100910.07;1649589;84;98604;-66
2022/07/21 05:30:33;;;;;;;14.10;4.58;;;;;;;23.90;46.22;100906.39;1648360;84;27504;-66
2022/07/21 05:33:00;;;;;;;6.20;4.70;;;;;;;23.91;46.21;100902.14;1646356;84;99234;-66
2022/07/21 05:35:27;;;;;;;13.38;4.30;;;;;;;23.95;46.23;100902.70;1650803;85;25774;-66
2022/07/21 05:37:53;;;;;;;12.07;4.72;;;;;;;23.98;46.21;100907.89;1651827;85;25747;-66
2022/07/21 05:40:19;;;;;;;10.85;4.65;;;;;;;24.06;46.21;100914.00;1612859;86;98918;-66
2022/07/21 05:42:45;;;;;;;16.45;4.25;;;;;;;24.09;46.18;100906.36;1651381;85;28274;-66
2022/07/21 05:45:11;;;;;;;11.53;4.33;;;;;;;24.15;46.16;100907.14;1652106;84;98849;-66
2022/07/21 05:47:38;;;;;;;12.33;4.47;;;;;;;24.21;46.18;100904.31;1650552;85;25756;-66
2022/07/21 05:50:05;;;;;;;13.53;4.75;;;;;;;24.24;46.14;100906.25;1592032;88;25846;-66
2022/07/21 05:52:31;;;;;;;21.12;5.33;;;;;;;24.31;46.17;100909.30;1650381;85;98525;-66
2022/07/21 05:54:57;;;;;;;19.40;5.03;;;;;;;24.37;46.14;100912.81;1599763;86;27399;-66
2022/07/21 05:57:23;;;;;;;12.85;4.67;;;;;;;24.42;46.12;100906.38;1652211;85;98866;-66
2022/07/21 05:59:49;;;;;;;13.25;5.50;;;;;;;24.48;46.09;100904.41;1655752;85;25775;-66
2022/07/21 06:02:15;;;;;;;15.43;6.15;;;;;;;24.54;46.07;100898.84;1654851;85;99269;-67
2022/07/21 06:04:41;;;;;;;8.00;4.65;;;;;;;24.59;46.05;100896.51;1657539;84;25917;-66
2022/07/21 06:07:09;;;;;;;12.93;4.50;;;;;;;24.67;46.01;100899.36;1659295;85;29479;-66
2022/07/21 06:09:34;;;;;;;17.40;5.80;;;;;;;24.74;46.01;100905.96;1655493;84;99011;-68
2022/07/21 06:12:00;;;;;;;12.37;5.60;;;;;;;24.82;45.93;100897.84;1630927;86;26257;-66
2022/07/21 06:14:26;;;;;;;14.83;5.83;;;;;;;24.88;45.87;100895.86;1654946;84;98979;-68
2022/07/21 06:16:52;;;;;;;9.65;4.92;;;;;;;24.97;45.83;100891.88;1656085;85;25760;-67
2022/07/21 06:19:18;;;;;;;13.93;5.10;;;;;;;25.02;45.80;100887.66;1648114;84;28043;-65
2022/07/21 06:21:44;;;;;;;9.55;4.53;;;;;;;25.10;45.75;100891.87;1658616;84;99023;-66
2022/07/21 06:24:14;;;;;;;10.60;4.53;;;;;;;25.17;45.72;100888.00;1656447;84;26332;-65
2022/07/21 06:26:40;;;;;;;17.35;5.47;;;;;;;25.25;45.64;100890.83;1656564;84;99016;-66
2022/07/21 06:29:07;;;;;;;12.55;4.78;;;;;;;25.33;45.61;100896.91;1641629;84;25371;-66
2022/07/21 06:31:34;;;;;;;11.35;4.90;;;;;;;25.39;45.53;100899.89;1643086;85;27520;-65
2022/07/21 06:34:00;;;;;;;16.02;5.37;;;;;;;25.47;45.48;100902.72;1641461;84;98977;-65
2022/07/21 06:36:26;;;;;;;11.85;5.72;;;;;;;25.56;45.42;100904.53;1652259;85;26085;-67
2022/07/21 06:38:51;;;;;;;16.93;5.37;;;;;;;25.65;45.34;100908.25;1647906;85;99084;-67
2022/07/21 06:41:19;;;;;;;25.08;5.10;;;;;;;25.73;45.29;100907.45;1647661;85;25753;-66
2022/07/21 06:43:45;;;;;;;21.15;5.20;;;;;;;25.80;45.22;100905.80;1649267;84;27913;-66
2022/07/21 06:46:11;;;;;;;9.75;5.15;;;;;;;25.87;45.14;100897.28;1646322;85;98983;-66
2022/07/21 06:48:36;;;;;;;14.60;6.17;;;;;;;25.98;45.06;100903.03;1647742;85;25833;-66
2022/07/21 06:51:02;;;;;;;10.75;5.45;;;;;;;26.04;44.98;100894.13;1641563;84;98999;-66
2022/07/21 06:53:29;;;;;;;14.98;5.85;;;;;;;26.12;44.93;100897.79;1660685;83;25600;-65
2022/07/21 06:55:55;;;;;;;20.30;5.83;;;;;;;26.20;44.82;100888.74;1655582;84;27382;-65
2022/07/21 06:58:24;;;;;;;17.70;4.90;;;;;;;26.29;44.75;100891.03;1633320;85;98895;-65
2022/07/21 07:00:51;;;;;;;19.73;6.15;;;;;;;26.37;44.64;100892.48;1623291;86;26557;-66
2022/07/21 07:03:18;;;;;;;10.05;5.25;;;;;;;26.42;44.58;100882.73;1624886;86;98860;-65
2022/07/21 07:05:48;;;;;;;16.02;5.28;;;;;;;26.52;44.51;100883.98;1656766;85;25680;-65
2022/07/21 07:08:14;;;;;;;16.32;5.58;;;;;;;26.59;44.43;100882.81;1654481;84;99023;-65
2022/07/21 07:10:42;;;;;;;17.35;5.28;;;;;;;26.68;44.30;100884.06;1650160;84;25934;-65
2022/07/21 07:13:10;;;;;;;12.28;5.42;;;;;;;26.74;44.19;100884.78;1653179;85;26532;-66
2022/07/21 07:15:36;;;;;;;11.35;5.25;;;;;;;26.79;44.10;100881.02;1651789;85;99038;-66
2022/07/21 07:18:01;;;;;;;14.35;5.10;;;;;;;26.85;44.01;100881.73;1653300;84;25855;-65
2022/07/21 07:20:27;;;;;;;14.65;5.47;;;;;;;26.92;43.94;100886.57;1655429;84;99114;-66
2022/07/21 07:22:55;;;;;;;11.53;5.65;;;;;;;27.00;43.83;100883.38;1649557;85;26574;-65
2022/07/21 07:25:21;;;;;;;15.30;5.35;;;;;;;27.08;43.75;100888.03;1625021;85;26326;-66
2022/07/21 07:27:49;;;;;;;15.20;5.67;;;;;;;27.16;43.64;100889.44;1654844;84;98870;-65
2022/07/21 07:30:17;;;;;;;16.20;5.40;;;;;;;27.24;43.54;100885.84;1639455;84;26512;-64
2022/07/21 07:32:43;;;;;;;11.80;4.97;;;;;;;27.30;43.46;100877.77;1637906;84;98975;-64
2022/07/21 07:35:11;;;;;;;15.40;5.20;;;;;;;27.37;43.40;100879.34;1648044;84;25832;-66
2022/07/21 07:37:39;;;;;;;11.57;5.03;;;;;;;27.46;43.28;100876.94;1645155;84;26824;-68
2022/07/21 07:40:09;;;;;;;17.77;5.03;;;;;;;27.51;43.21;100882.80;1641005;84;98991;-65
2022/07/21 07:42:37;;;;;;;12.45;5.53;;;;;;;27.63;43.13;100886.11;1612161;85;25944;-65
2022/07/21 07:45:06;;;;;;;15.45;5.45;;;;;;;27.76;42.99;100887.84;1641049;84;98900;-66
2022/07/21 07:47:33;;;;;;;18.20;6.92;;;;;;;27.86;42.79;100895.41;1649286;85;26147;-65
2022/07/21 07:49:59;;;;;;;13.75;6.35;;;;;;;27.96;42.65;100891.97;1626918;86;25824;-66
2022/07/21 07:52:25;;;;;;;10.70;4.87;;;;;;;28.08;42.49;100887.82;1651194;83;98648;-66
2022/07/21 07:54:54;;;;;;;20.08;6.10;;;;;;;28.21;42.28;100885.91;1655426;85;25719;-67
2022/07/21 07:57:20;;;;;;;16.80;5.72;;;;;;;28.28;42.15;100890.23;1655901;83;99042;-67
2022/07/21 07:59:46;;;;;;;12.88;5.53;;;;;;;28.43;41.96;100882.45;1615291;86;25838;-65
2022/07/21 08:02:12;;;;;;;7.60;5.10;;;;;;;28.51;41.76;100889.84;1614685;86;99673;-67
2022/07/21 08:04:40;;;;;;;14.50;5.03;;;;;;;28.58;41.58;100892.23;1617599;86;26333;-66
2022/07/21 08:07:05;;;;;;;13.88;5.55;;;;;;;28.59;41.50;100885.67;1616721;86;26070;-66
2022/07/21 08:09:31;;;;;;;19.82;5.70;;;;;;;28.65;41.42;100890.97;1618226;85;98950;-66
2022/07/21 08:11:57;;;;;;;21.73;6.00;;;;;;;28.72;41.30;100883.70;1626555;86;26582;-65
2022/07/21 08:14:23;;;;;;;13.20;5.55;;;;;;;28.77;41.24;100882.13;1615617;86;99562;-66
2022/07/21 08:16:49;;;;;;;14.80;5.67;;;;;;;28.85;41.12;100888.16;1618761;86;28345;-66
2022/07/21 08:19:15;;;;;;;14.18;5.50;;;;;;;28.90;41.01;100881.58;1616686;85;26655;-66
2022/07/21 08:21:41;;;;;;;13.28;5.12;;;;;;;29.00;40.93;100878.09;1616895;85;98970;-66
2022/07/21 08:24:08;;;;;;;11.60;5.03;;;;;;;29.18;40.78;100872.81;1618178;87;25869;-66
2022/07/21 08:26:34;;;;;;;11.05;5.12;;;;;;;29.31;40.53;100866.17;1616845;86;99024;-67
2022/07/21 08:29:02;;;;;;;11.60;5.08;;;;;;;29.44;40.24;100862.31;1619256;85;25846;-66
2022/07/21 08:31:30;;;;;;;6.65;4.42;;;;;;;29.54;39.96;100863.45;1617114;85;25885;-66
2022/07/21 08:33:55;;;;;;;15.10;6.05;;;;;;;29.65;39.78;100853.34;1600566;87;98782;-66
2022/07/21 08:36:22;;;;;;;12.18;5.55;;;;;;;29.77;39.56;100853.25;1604955;86;25885;-67
2022/07/21 08:38:48;;;;;;;15.23;5.05;;;;;;;29.87;39.31;100852.98;1619065;85;99529;-66
2022/07/21 08:41:14;;;;;;;10.23;4.70;;;;;;;29.92;39.04;100850.00;1613466;87;25801;-67
2022/07/21 08:43:41;;;;;;;11.33;5.30;;;;;;;30.04;38.78;100847.15;1604847;86;25875;-67
2022/07/21 08:46:08;;;;;;;9.90;5.12;;;;;;;30.19;38.38;100850.45;1598251;88;99246;-67
2022/07/21 08:48:34;;;;;;;14.78;5.20;;;;;;;30.26;38.25;100846.74;1607983;86;25893;-67
2022/07/21 08:50:59;;;;;;;6.92;4.33;;;;;;;30.39;38.03;100846.61;1620012;86;99255;-66
2022/07/21 08:53:28;;;;;;;13.50;4.85;;;;;;;30.56;37.51;100846.75;1623656;85;25824;-66
2022/07/21 08:55:54;;;;;;;5.62;3.77;;;;;;;30.66;37.03;100848.20;1621509;85;25768;-66
2022/07/21 08:58:20;;;;;;;9.45;4.50;;;;;;;30.79;36.70;100843.90;1626214;83;99516;-65
2022/07/21 09:00:49;;;;;;;9.18;4.70;;;;;;;30.86;36.48;100840.16;1637372;84;26251;-66
2022/07/21 09:03:20;;;;;;;14.80;4.83;;;;;;;30.87;36.27;100834.95;1636825;86;98671;-65
2022/07/21 09:06:10;;;;;;;9.50;4.83;;;;;;;30.91;36.17;100834.05;1641951;85;26376;-65
2022/07/21 09:08:43;;;;;;;8.48;4.65;;;;;;;30.99;35.97;100837.55;1620865;87;99193;-65
2022/07/21 09:11:23;;;;;;;8.58;4.62;;;;;;;31.12;35.71;100845.69;1631577;86;27499;-65
2022/07/21 09:14:09;;;;;;;14.38;4.33;;;;;;;31.25;35.40;100833.37;1653367;84;26528;-65
2022/07/21 09:16:43;;;;;;;12.85;4.30;;;;;;;31.24;35.21;100832.52;1632871;86;98785;-65
2022/07/21 09:19:26;;;;;;;12.30;5.92;;;;;;;31.22;34.97;100831.00;1659841;84;25848;-66
2022/07/21 09:21:56;;;;;;;8.73;4.20;;;;;;;31.21;34.80;100828.75;1649413;84;98961;-66
2022/07/21 09:24:38;;;;;;;8.60;4.08;;;;;;;31.32;34.45;100825.98;1641035;84;28197;-66
2022/07/21 09:27:15;;;;;;;10.75;4.58;;;;;;;31.42;34.38;100811.81;1658707;84;98790;-66
2022/07/21 09:30:00;;;;;;;18.85;5.08;;;;;;;31.44;34.28;100812.47;1662982;85;25789;-64
2022/07/21 09:32:33;;;;;;;12.82;3.85;;;;;;;31.55;34.24;100807.78;1633455;85;99126;-64
2022/07/21 09:35:05;;;;;;;9.25;4.50;;;;;;;31.67;34.09;100800.64;1654505;85;25844;-65
2022/07/21 09:37:32;;;;;;;13.53;4.12;;;;;;;31.70;33.92;100799.42;1661137;83;28561;-64
2022/07/21 09:40:06;;;;;;;7.65;4.15;;;;;;;31.72;33.77;100796.77;1629344;84;98835;-64
2022/07/21 09:42:37;;;;;;;9.58;4.05;;;;;;;31.76;33.73;100791.16;1638883;86;25768;-64
2022/07/21 09:45:13;;;;;;;9.58;3.87;;;;;;;31.88;33.47;100797.01;1656363;85;98817;-64
2022/07/21 09:47:42;;;;;;;7.58;4.30;;;;;;;31.98;33.33;100795.27;1647454;85;26602;-64
2022/07/21 09:50:13;;;;;;;7.53;3.90;;;;;;;32.13;33.11;100794.62;1633012;86;27552;-64
2022/07/21 09:52:44;;;;;;;9.38;3.77;;;;;;;32.15;32.84;100788.34;1648913;84;98774;-64
2022/07/21 09:55:13;;;;;;;13.83;4.05;;;;;;;32.10;32.73;100779.78;1647490;85;26293;-64
2022/07/21 09:57:43;;;;;;;9.58;3.33;;;;;;;32.12;32.56;100788.75;1654853;83;98990;-64
2022/07/21 10:00:15;;;;;;;15.32;4.20;;;;;;;32.22;32.29;100790.09;1652970;84;33178;-64
2022/07/21 10:02:44;;;;;;;7.90;3.50;;;;;;;32.31;32.07;100797.76;1654851;83;99021;-65
2022/07/21 10:05:17;;;;;;;13.18;4.00;;;;;;;32.36;31.84;100792.45;1662429;83;25796;-66
2022/07/21 10:07:47;;;;;;;34.45;4.85;;;;;;;32.47;31.59;100791.88;1649893;85;26491;-67
2022/07/21 10:10:15;;;;;;;8.60;3.77;;;;;;;32.48;30.72;100782.48;1636444;85;99341;-65
2022/07/21 10:12:43;;;;;;;8.63;3.85;;;;;;;32.63;30.67;100793.44;1662569;85;25754;-66
2022/07/21 10:15:10;;;;;;;3.95;3.40;;;;;;;32.71;30.68;100789.09;1659010;83;99100;-66
2022/07/21 10:17:38;;;;;;;6.20;3.75;;;;;;;32.86;30.50;100782.03;1645741;85;26579;-66
2022/07/21 10:20:12;;;;;;;7.47;3.62;;;;;;;32.87;30.40;100787.91;1659803;84;26268;-65
2022/07/21 10:23:04;;;;;;;6.62;3.87;;;;;;;32.97;30.21;100780.03;1643326;85;98610;-66
2022/07/21 10:25:32;;;;;;;26.00;4.22;;;;;;;32.93;30.08;100780.13;1663410;83;25822;-66
2022/07/21 10:28:14;;;;;;;12.85;3.83;;;;;;;32.97;30.02;100777.26;1646825;84;99389;-66
2022/07/21 10:30:46;;;;;;;6.08;3.62;;;;;;;33.11;29.86;100765.11;1653745;84;26344;-66
2022/07/21 10:33:16;;;;;;;6.90;3.05;;;;;;;33.18;29.44;100767.38;1651894;85;98748;-66
2022/07/21 10:35:46;;;;;;;8.68;3.62;;;;;;;33.33;29.41;100763.58;1638857;85;25832;-67
2022/07/21 10:38:31;;;;;;;7.43;3.57;;;;;;;33.49;29.12;100759.84;1636973;85;25772;-64
2022/07/21 10:40:59;;;;;;;8.03;3.70;;;;;;;33.49;29.12;100759.84;1616134;85;98585;-64
2022/07/21 10:43:31;;;;;;;4.70;3.47;;;;;;;33.71;28.87;100763.27;1624567;87;25854;-63
2022/07/21 10:45:59;;;;;;;16.12;5.00;;;;;;;33.92;28.65;100759.39;1630375;85;98884;-66
2022/07/21 10:48:44;;;;;;;12.58;4.22;;;;;;;34.14;28.48;100759.98;1658593;85;25916;-66
2022/07/21 10:51:14;;;;;;;11.30;4.30;;;;;;;34.30;28.37;100759.52;1654660;83;99495;-64
2022/07/21 10:53:40;;;;;;;8.55;4.03;;;;;;;34.47;28.21;100759.37;1654587;84;28580;-64
2022/07/21 10:56:08;;;;;;;5.08;3.20;;;;;;;34.62;28.00;100765.21;1644157;85;26513;-64
2022/07/21 10:58:40;;;;;;;5.03;3.85;;;;;;;34.75;27.83;100763.75;1652773;83;98630;-64
2022/07/21 11:01:24;;;;;;;18.02;4.25;;;;;;;34.85;27.49;100764.16;1633630;85;26029;-64
2022/07/21 11:04:16;;;;;;;21.00;4.30;;;;;;;34.93;27.39;100759.72;1651390;84;98937;-64
2022/07/21 11:06:42;;;;;;;6.65;3.62;;;;;;;35.06;27.25;100765.75;1642459;84;27400;-64
2022/07/21 11:09:33;;;;;;;11.18;3.95;;;;;;;35.20;27.04;100770.16;1644054;84;99108;-64
2022/07/21 11:12:03;;;;;;;12.05;4.33;;;;;;;35.30;26.98;100766.34;1618942;86;25940;-64
2022/07/21 11:14:40;;;;;;;12.03;4.58;;;;;;;35.44;26.82;100761.55;1635926;85;27714;-64
2022/07/21 11:17:12;;;;;;;14.35;3.80;;;;;;;35.58;26.52;100746.96;1650010;84;98758;-64
2022/07/21 11:19:49;;;;;;;6.30;3.40;;;;;;;35.72;26.40;100759.16;1622618;86;27501;-64
2022/07/21 11:22:22;;;;;;;4.95;3.25;;;;;;;35.84;26.29;100758.45;1602978;87;98821;-64
2022/07/21 11:24:56;;;;;;;6.33;3.52;;;;;;;35.98;25.82;100755.84;1655606;84;26197;-64
2022/07/21 11:27:25;;;;;;;10.53;3.77;;;;;;;35.98;25.65;100751.66;1663620;83;98895;-64
2022/07/21 11:29:58;;;;;;;10.45;3.80;;;;;;;36.02;25.49;100747.31;1675389;82;26111;-64